sensor_id;sensor_type;location;lat;lon;timestamp;P1;durP1;ratioP1;P2;durP2;ratioP2
13090;SDS011;6611;52.604;13.438;2024-02-16T00:02:28;6.77;;;5.17;;
13090;SDS011;6611;52.604;13.438;2024-02-16T00:07:29;5.30;;;4.57;;
13090;SDS011;6611;52.604;13.438;2024-02-16T00:12:33;5.40;;;4.13;;
13090;SDS011;6611;52.604;13.438;2024-02-16T00:17:35;6.20;;;4.90;;
13090;SDS011;6611;52.604;13.438;2024-02-16T00:22:37;7.13;;;5.20;;
13090;SDS011;6611;52.604;13.438;2024-02-16T00:27:40;7.30;;;5.00;;
13090;SDS011;6611;52.604;13.438;2024-02-16T00:32:42;6.70;;;5.17;;
13090;SDS011;6611;52.604;13.438;2024-02-16T00:37:45;8.00;;;5.63;;
13090;SDS011;6611;52.604;13.438;2024-02-16T00:42:48;7.90;;;6.17;;
13090;SDS011;6611;52.604;13.438;2024-02-16T00:47:50;7.00;;;5.80;;
13090;SDS011;6611;52.604;13.438;2024-02-16T00:52:51;7.37;;;5.40;;
13090;SDS011;6611;52.604;13.438;2024-02-16T00:57:54;8.80;;;7.07;;
13090;SDS011;6611;52.604;13.438;2024-02-16T01:02:56;9.43;;;6.80;;
13090;SDS011;6611;52.604;13.438;2024-02-16T01:07:57;8.57;;;6.27;;
13090;SDS011;6611;52.604;13.438;2024-02-16T01:13:01;11.53;;;7.10;;
13090;SDS011;6611;52.604;13.438;2024-02-16T01:18:03;8.53;;;6.47;;
13090;SDS011;6611;52.604;13.438;2024-02-16T01:23:05;8.73;;;6.87;;
13090;SDS011;6611;52.604;13.438;2024-02-16T01:28:08;8.67;;;6.80;;
13090;SDS011;6611;52.604;13.438;2024-02-16T01:33:13;10.03;;;6.93;;
13090;SDS011;6611;52.604;13.438;2024-02-16T01:38:15;10.30;;;7.50;;
13090;SDS011;6611;52.604;13.438;2024-02-16T01:43:19;9.40;;;7.63;;
13090;SDS011;6611;52.604;13.438;2024-02-16T01:48:21;10.87;;;7.30;;
13090;SDS011;6611;52.604;13.438;2024-02-16T01:53:23;11.97;;;8.60;;
13090;SDS011;6611;52.604;13.438;2024-02-16T01:58:26;13.70;;;9.57;;
13090;SDS011;6611;52.604;13.438;2024-02-16T02:03:28;13.93;;;9.40;;
13090;SDS011;6611;52.604;13.438;2024-02-16T02:08:30;17.03;;;11.30;;
13090;SDS011;6611;52.604;13.438;2024-02-16T02:13:34;16.43;;;10.87;;
13090;SDS011;6611;52.604;13.438;2024-02-16T02:18:35;14.77;;;11.37;;
13090;SDS011;6611;52.604;13.438;2024-02-16T02:23:38;17.57;;;11.67;;
13090;SDS011;6611;52.604;13.438;2024-02-16T02:28:40;14.73;;;11.10;;
13090;SDS011;6611;52.604;13.438;2024-02-16T02:33:41;18.83;;;11.77;;
13090;SDS011;6611;52.604;13.438;2024-02-16T02:38:44;16.23;;;12.40;;
13090;SDS011;6611;52.604;13.438;2024-02-16T02:43:46;17.67;;;12.00;;
13090;SDS011;6611;52.604;13.438;2024-02-16T02:48:48;16.43;;;12.13;;
13090;SDS011;6611;52.604;13.438;2024-02-16T02:53:51;17.10;;;11.67;;
13090;SDS011;6611;52.604;13.438;2024-02-16T02:58:52;17.67;;;12.30;;
13090;SDS011;6611;52.604;13.438;2024-02-16T03:03:54;16.13;;;12.27;;
13090;SDS011;6611;52.604;13.438;2024-02-16T03:08:57;18.50;;;12.47;;
13090;SDS011;6611;52.604;13.438;2024-02-16T03:13:59;17.93;;;12.60;;
13090;SDS011;6611;52.604;13.438;2024-02-16T03:19:01;16.17;;;12.13;;
13090;SDS011;6611;52.604;13.438;2024-02-16T03:24:04;15.73;;;11.67;;
13090;SDS011;6611;52.604;13.438;2024-02-16T03:29:06;15.37;;;12.00;;
13090;SDS011;6611;52.604;13.438;2024-02-16T03:34:08;17.40;;;12.03;;
13090;SDS011;6611;52.604;13.438;2024-02-16T03:39:11;18.70;;;12.43;;
13090;SDS011;6611;52.604;13.438;2024-02-16T03:44:12;17.90;;;11.97;;
13090;SDS011;6611;52.604;13.438;2024-02-16T03:49:14;16.47;;;11.27;;
13090;SDS011;6611;52.604;13.438;2024-02-16T03:54:17;14.60;;;11.17;;
13090;SDS011;6611;52.604;13.438;2024-02-16T03:59:19;16.57;;;11.83;;
13090;SDS011;6611;52.604;13.438;2024-02-16T04:04:20;17.23;;;12.77;;
13090;SDS011;6611;52.604;13.438;2024-02-16T04:09:23;15.33;;;11.47;;
13090;SDS011;6611;52.604;13.438;2024-02-16T04:14:25;14.77;;;10.53;;
13090;SDS011;6611;52.604;13.438;2024-02-16T04:19:26;14.07;;;10.87;;
13090;SDS011;6611;52.604;13.438;2024-02-16T04:24:30;16.80;;;12.20;;
13090;SDS011;6611;52.604;13.438;2024-02-16T04:29:31;17.50;;;11.43;;
13090;SDS011;6611;52.604;13.438;2024-02-16T04:34:33;16.17;;;11.70;;
13090;SDS011;6611;52.604;13.438;2024-02-16T04:39:36;14.90;;;11.20;;
13090;SDS011;6611;52.604;13.438;2024-02-16T04:44:37;13.73;;;10.53;;
13090;SDS011;6611;52.604;13.438;2024-02-16T04:49:39;14.60;;;11.40;;
13090;SDS011;6611;52.604;13.438;2024-02-16T04:54:42;15.57;;;10.70;;
13090;SDS011;6611;52.604;13.438;2024-02-16T04:59:44;15.47;;;10.97;;
13090;SDS011;6611;52.604;13.438;2024-02-16T05:04:45;15.03;;;10.63;;
13090;SDS011;6611;52.604;13.438;2024-02-16T05:09:48;13.60;;;10.57;;
13090;SDS011;6611;52.604;13.438;2024-02-16T05:14:55;16.67;;;11.17;;
13090;SDS011;6611;52.604;13.438;2024-02-16T05:19:57;15.07;;;10.57;;
13090;SDS011;6611;52.604;13.438;2024-02-16T05:25:00;14.40;;;10.03;;
13090;SDS011;6611;52.604;13.438;2024-02-16T05:30:02;16.33;;;10.70;;
13090;SDS011;6611;52.604;13.438;2024-02-16T05:35:04;14.93;;;10.97;;
13090;SDS011;6611;52.604;13.438;2024-02-16T05:40:13;15.20;;;10.50;;
13090;SDS011;6611;52.604;13.438;2024-02-16T05:45:21;15.40;;;11.07;;
13090;SDS011;6611;52.604;13.438;2024-02-16T05:50:23;13.40;;;9.83;;
13090;SDS011;6611;52.604;13.438;2024-02-16T05:55:26;15.37;;;10.37;;
13090;SDS011;6611;52.604;13.438;2024-02-16T06:00:28;16.80;;;10.50;;
13090;SDS011;6611;52.604;13.438;2024-02-16T06:05:30;11.07;;;8.63;;
13090;SDS011;6611;52.604;13.438;2024-02-16T06:10:34;14.30;;;9.63;;
13090;SDS011;6611;52.604;13.438;2024-02-16T06:15:36;11.97;;;9.20;;
13090;SDS011;6611;52.604;13.438;2024-02-16T06:20:38;13.37;;;9.57;;
13090;SDS011;6611;52.604;13.438;2024-02-16T06:25:42;13.10;;;9.30;;
13090;SDS011;6611;52.604;13.438;2024-02-16T06:30:44;10.87;;;9.07;;
13090;SDS011;6611;52.604;13.438;2024-02-16T06:35:46;12.53;;;8.63;;
13090;SDS011;6611;52.604;13.438;2024-02-16T06:40:51;11.13;;;8.70;;
13090;SDS011;6611;52.604;13.438;2024-02-16T06:45:53;12.17;;;8.43;;
13090;SDS011;6611;52.604;13.438;2024-02-16T06:50:56;13.90;;;8.57;;
13090;SDS011;6611;52.604;13.438;2024-02-16T06:55:59;13.00;;;8.77;;
13090;SDS011;6611;52.604;13.438;2024-02-16T07:01:01;14.70;;;9.60;;
13090;SDS011;6611;52.604;13.438;2024-02-16T07:06:03;13.30;;;9.00;;
13090;SDS011;6611;52.604;13.438;2024-02-16T07:11:11;13.33;;;9.13;;
13090;SDS011;6611;52.604;13.438;2024-02-16T07:16:13;12.50;;;9.13;;
13090;SDS011;6611;52.604;13.438;2024-02-16T07:21:14;12.30;;;9.37;;
13090;SDS011;6611;52.604;13.438;2024-02-16T07:26:18;11.63;;;8.60;;
13090;SDS011;6611;52.604;13.438;2024-02-16T07:31:19;14.27;;;9.50;;
13090;SDS011;6611;52.604;13.438;2024-02-16T07:36:21;12.93;;;8.67;;
13090;SDS011;6611;52.604;13.438;2024-02-16T07:41:24;11.83;;;8.67;;
13090;SDS011;6611;52.604;13.438;2024-02-16T07:46:27;12.57;;;8.97;;
13090;SDS011;6611;52.604;13.438;2024-02-16T07:51:29;12.40;;;8.60;;
13090;SDS011;6611;52.604;13.438;2024-02-16T07:56:32;12.23;;;9.10;;
13090;SDS011;6611;52.604;13.438;2024-02-16T08:01:33;13.43;;;10.03;;
13090;SDS011;6611;52.604;13.438;2024-02-16T08:06:35;12.50;;;9.17;;
13090;SDS011;6611;52.604;13.438;2024-02-16T08:11:38;11.30;;;8.47;;
13090;SDS011;6611;52.604;13.438;2024-02-16T08:16:40;12.00;;;8.67;;
13090;SDS011;6611;52.604;13.438;2024-02-16T08:21:41;10.30;;;8.43;;
13090;SDS011;6611;52.604;13.438;2024-02-16T08:26:45;10.23;;;7.77;;
13090;SDS011;6611;52.604;13.438;2024-02-16T08:31:47;8.73;;;7.17;;
13090;SDS011;6611;52.604;13.438;2024-02-16T08:36:49;9.73;;;7.53;;
13090;SDS011;6611;52.604;13.438;2024-02-16T08:41:52;10.93;;;7.67;;
13090;SDS011;6611;52.604;13.438;2024-02-16T08:46:54;9.63;;;6.93;;
13090;SDS011;6611;52.604;13.438;2024-02-16T08:51:56;9.03;;;7.23;;
13090;SDS011;6611;52.604;13.438;2024-02-16T08:56:59;9.50;;;7.00;;
13090;SDS011;6611;52.604;13.438;2024-02-16T09:02:01;9.70;;;6.57;;
13090;SDS011;6611;52.604;13.438;2024-02-16T09:07:03;9.57;;;7.00;;
13090;SDS011;6611;52.604;13.438;2024-02-16T09:12:06;9.20;;;6.90;;
13090;SDS011;6611;52.604;13.438;2024-02-16T09:17:08;8.90;;;6.50;;
13090;SDS011;6611;52.604;13.438;2024-02-16T09:22:10;8.43;;;6.23;;
13090;SDS011;6611;52.604;13.438;2024-02-16T09:27:13;9.50;;;6.73;;
13090;SDS011;6611;52.604;13.438;2024-02-16T09:32:15;9.87;;;6.27;;
13090;SDS011;6611;52.604;13.438;2024-02-16T09:37:16;10.17;;;6.87;;
13090;SDS011;6611;52.604;13.438;2024-02-16T09:42:19;8.20;;;6.20;;
13090;SDS011;6611;52.604;13.438;2024-02-16T09:47:22;9.80;;;6.20;;
13090;SDS011;6611;52.604;13.438;2024-02-16T09:52:28;6.77;;;5.63;;
13090;SDS011;6611;52.604;13.438;2024-02-16T09:57:31;8.90;;;6.40;;
13090;SDS011;6611;52.604;13.438;2024-02-16T10:02:39;9.23;;;6.23;;
13090;SDS011;6611;52.604;13.438;2024-02-16T10:07:42;7.80;;;5.87;;
13090;SDS011;6611;52.604;13.438;2024-02-16T10:12:46;8.73;;;6.43;;
13090;SDS011;6611;52.604;13.438;2024-02-16T10:17:57;7.00;;;5.13;;
13090;SDS011;6611;52.604;13.438;2024-02-16T10:23:03;7.27;;;4.90;;
13090;SDS011;6611;52.604;13.438;2024-02-16T10:28:08;7.57;;;4.60;;
13090;SDS011;6611;52.604;13.438;2024-02-16T10:33:12;6.33;;;4.53;;
13090;SDS011;6611;52.604;13.438;2024-02-16T10:38:14;6.53;;;4.30;;
13090;SDS011;6611;52.604;13.438;2024-02-16T10:43:18;4.83;;;4.07;;
13090;SDS011;6611;52.604;13.438;2024-02-16T10:48:20;5.37;;;3.80;;
13090;SDS011;6611;52.604;13.438;2024-02-16T10:53:23;4.60;;;4.07;;
13090;SDS011;6611;52.604;13.438;2024-02-16T10:58:28;5.53;;;3.97;;
13090;SDS011;6611;52.604;13.438;2024-02-16T11:03:31;4.67;;;3.80;;
13090;SDS011;6611;52.604;13.438;2024-02-16T11:08:37;5.40;;;3.80;;
13090;SDS011;6611;52.604;13.438;2024-02-16T11:13:40;5.07;;;3.77;;
13090;SDS011;6611;52.604;13.438;2024-02-16T11:18:45;5.07;;;3.60;;
13090;SDS011;6611;52.604;13.438;2024-02-16T11:23:48;4.60;;;3.73;;
13090;SDS011;6611;52.604;13.438;2024-02-16T11:28:52;4.77;;;3.73;;
13090;SDS011;6611;52.604;13.438;2024-02-16T11:33:54;4.37;;;3.70;;
13090;SDS011;6611;52.604;13.438;2024-02-16T11:38:56;5.33;;;4.00;;
13090;SDS011;6611;52.604;13.438;2024-02-16T11:44:00;5.63;;;3.63;;
13090;SDS011;6611;52.604;13.438;2024-02-16T11:49:05;6.60;;;3.40;;
13090;SDS011;6611;52.604;13.438;2024-02-16T11:54:07;4.73;;;3.60;;
13090;SDS011;6611;52.604;13.438;2024-02-16T11:59:12;4.53;;;3.70;;
13090;SDS011;6611;52.604;13.438;2024-02-16T12:04:19;4.90;;;3.60;;
13090;SDS011;6611;52.604;13.438;2024-02-16T12:09:22;6.17;;;3.87;;
13090;SDS011;6611;52.604;13.438;2024-02-16T12:14:25;6.30;;;3.90;;
13090;SDS011;6611;52.604;13.438;2024-02-16T12:19:28;4.80;;;3.77;;
13090;SDS011;6611;52.604;13.438;2024-02-16T12:24:29;4.47;;;3.03;;
13090;SDS011;6611;52.604;13.438;2024-02-16T12:29:32;3.93;;;2.87;;
13090;SDS011;6611;52.604;13.438;2024-02-16T12:34:34;4.13;;;3.20;;
13090;SDS011;6611;52.604;13.438;2024-02-16T12:39:37;4.07;;;2.80;;
13090;SDS011;6611;52.604;13.438;2024-02-16T12:44:41;5.30;;;3.17;;
13090;SDS011;6611;52.604;13.438;2024-02-16T12:49:43;3.03;;;2.67;;
13090;SDS011;6611;52.604;13.438;2024-02-16T12:54:44;4.10;;;2.40;;
13090;SDS011;6611;52.604;13.438;2024-02-16T12:59:47;4.73;;;2.60;;
13090;SDS011;6611;52.604;13.438;2024-02-16T13:04:49;2.60;;;2.17;;
13090;SDS011;6611;52.604;13.438;2024-02-16T13:09:50;3.50;;;2.73;;
13090;SDS011;6611;52.604;13.438;2024-02-16T13:14:54;3.67;;;2.60;;
13090;SDS011;6611;52.604;13.438;2024-02-16T13:19:56;3.17;;;2.43;;
13090;SDS011;6611;52.604;13.438;2024-02-16T13:25:06;3.87;;;2.57;;
13090;SDS011;6611;52.604;13.438;2024-02-16T13:30:11;3.40;;;2.70;;
13090;SDS011;6611;52.604;13.438;2024-02-16T13:35:13;3.83;;;2.37;;
13090;SDS011;6611;52.604;13.438;2024-02-16T13:40:15;4.10;;;2.40;;
13090;SDS011;6611;52.604;13.438;2024-02-16T13:45:19;3.57;;;2.53;;
13090;SDS011;6611;52.604;13.438;2024-02-16T13:50:20;4.47;;;2.00;;
13090;SDS011;6611;52.604;13.438;2024-02-16T13:55:22;2.10;;;1.90;;
13090;SDS011;6611;52.604;13.438;2024-02-16T14:00:25;3.10;;;1.47;;
13090;SDS011;6611;52.604;13.438;2024-02-16T14:05:27;3.10;;;1.87;;
13090;SDS011;6611;52.604;13.438;2024-02-16T14:10:28;3.53;;;1.80;;
13090;SDS011;6611;52.604;13.438;2024-02-16T14:15:31;4.23;;;1.73;;
13090;SDS011;6611;52.604;13.438;2024-02-16T14:20:34;2.50;;;1.60;;
13090;SDS011;6611;52.604;13.438;2024-02-16T14:25:36;2.97;;;1.80;;
13090;SDS011;6611;52.604;13.438;2024-02-16T14:30:41;2.70;;;1.60;;
13090;SDS011;6611;52.604;13.438;2024-02-16T14:35:43;3.87;;;1.70;;
13090;SDS011;6611;52.604;13.438;2024-02-16T14:40:45;3.67;;;2.10;;
13090;SDS011;6611;52.604;13.438;2024-02-16T14:45:48;3.13;;;1.73;;
13090;SDS011;6611;52.604;13.438;2024-02-16T14:50:50;3.47;;;2.43;;
13090;SDS011;6611;52.604;13.438;2024-02-16T14:55:52;3.93;;;2.00;;
13090;SDS011;6611;52.604;13.438;2024-02-16T15:00:55;4.13;;;2.00;;
13090;SDS011;6611;52.604;13.438;2024-02-16T15:05:57;5.00;;;1.83;;
13090;SDS011;6611;52.604;13.438;2024-02-16T15:10:59;1.97;;;1.70;;
13090;SDS011;6611;52.604;13.438;2024-02-16T15:16:02;3.43;;;1.97;;
13090;SDS011;6611;52.604;13.438;2024-02-16T15:21:04;4.30;;;1.80;;
13090;SDS011;6611;52.604;13.438;2024-02-16T15:26:09;2.40;;;1.60;;
13090;SDS011;6611;52.604;13.438;2024-02-16T15:31:12;2.70;;;1.80;;
13090;SDS011;6611;52.604;13.438;2024-02-16T15:36:14;4.47;;;2.00;;
13090;SDS011;6611;52.604;13.438;2024-02-16T15:41:15;3.10;;;1.97;;
13090;SDS011;6611;52.604;13.438;2024-02-16T15:46:18;2.30;;;1.53;;
13090;SDS011;6611;52.604;13.438;2024-02-16T15:51:20;3.00;;;2.13;;
13090;SDS011;6611;52.604;13.438;2024-02-16T15:56:22;3.63;;;1.70;;
13090;SDS011;6611;52.604;13.438;2024-02-16T16:01:25;2.70;;;1.83;;
13090;SDS011;6611;52.604;13.438;2024-02-16T16:06:27;3.00;;;1.70;;
13090;SDS011;6611;52.604;13.438;2024-02-16T16:11:29;3.50;;;2.00;;
13090;SDS011;6611;52.604;13.438;2024-02-16T16:16:32;3.47;;;2.03;;
13090;SDS011;6611;52.604;13.438;2024-02-16T16:21:34;2.93;;;1.77;;
13090;SDS011;6611;52.604;13.438;2024-02-16T16:26:36;3.73;;;1.90;;
13090;SDS011;6611;52.604;13.438;2024-02-16T16:31:39;2.67;;;1.93;;
13090;SDS011;6611;52.604;13.438;2024-02-16T16:36:40;3.23;;;1.90;;
13090;SDS011;6611;52.604;13.438;2024-02-16T16:41:42;3.60;;;1.97;;
13090;SDS011;6611;52.604;13.438;2024-02-16T16:46:45;3.67;;;2.30;;
13090;SDS011;6611;52.604;13.438;2024-02-16T16:51:46;3.77;;;2.00;;
13090;SDS011;6611;52.604;13.438;2024-02-16T16:56:48;5.10;;;1.90;;
13090;SDS011;6611;52.604;13.438;2024-02-16T17:01:51;4.23;;;1.90;;
13090;SDS011;6611;52.604;13.438;2024-02-16T17:06:53;3.30;;;1.90;;
13090;SDS011;6611;52.604;13.438;2024-02-16T17:11:54;2.47;;;2.03;;
13090;SDS011;6611;52.604;13.438;2024-02-16T17:16:59;4.90;;;2.37;;
13090;SDS011;6611;52.604;13.438;2024-02-16T17:22:02;2.20;;;1.83;;
13090;SDS011;6611;52.604;13.438;2024-02-16T17:27:04;4.67;;;2.47;;
13090;SDS011;6611;52.604;13.438;2024-02-16T17:32:08;4.53;;;1.80;;
13090;SDS011;6611;52.604;13.438;2024-02-16T17:37:10;4.57;;;2.30;;
13090;SDS011;6611;52.604;13.438;2024-02-16T17:42:12;3.40;;;2.20;;
13090;SDS011;6611;52.604;13.438;2024-02-16T17:47:15;4.00;;;2.20;;
13090;SDS011;6611;52.604;13.438;2024-02-16T17:52:17;2.63;;;2.00;;
13090;SDS011;6611;52.604;13.438;2024-02-16T17:57:18;3.57;;;2.10;;
13090;SDS011;6611;52.604;13.438;2024-02-16T18:02:22;2.63;;;2.20;;
13090;SDS011;6611;52.604;13.438;2024-02-16T18:07:23;4.40;;;2.40;;
13090;SDS011;6611;52.604;13.438;2024-02-16T18:12:25;4.20;;;2.50;;
13090;SDS011;6611;52.604;13.438;2024-02-16T18:17:28;3.77;;;2.60;;
13090;SDS011;6611;52.604;13.438;2024-02-16T18:22:30;3.97;;;3.10;;
13090;SDS011;6611;52.604;13.438;2024-02-16T18:27:31;6.03;;;4.10;;
13090;SDS011;6611;52.604;13.438;2024-02-16T18:32:34;6.77;;;4.03;;
13090;SDS011;6611;52.604;13.438;2024-02-16T18:37:36;7.43;;;4.50;;
13090;SDS011;6611;52.604;13.438;2024-02-16T18:42:38;9.17;;;4.50;;
13090;SDS011;6611;52.604;13.438;2024-02-16T18:47:41;8.10;;;4.00;;
13090;SDS011;6611;52.604;13.438;2024-02-16T18:52:43;6.00;;;4.20;;
13090;SDS011;6611;52.604;13.438;2024-02-16T18:57:44;7.47;;;4.10;;
13090;SDS011;6611;52.604;13.438;2024-02-16T19:02:47;5.53;;;3.97;;
13090;SDS011;6611;52.604;13.438;2024-02-16T19:07:49;5.77;;;3.30;;
13090;SDS011;6611;52.604;13.438;2024-02-16T19:12:51;4.93;;;2.70;;
13090;SDS011;6611;52.604;13.438;2024-02-16T19:17:54;2.77;;;2.30;;
13090;SDS011;6611;52.604;13.438;2024-02-16T19:22:55;4.13;;;3.00;;
13090;SDS011;6611;52.604;13.438;2024-02-16T19:27:57;4.27;;;3.37;;
13090;SDS011;6611;52.604;13.438;2024-02-16T19:33:00;4.67;;;3.07;;
13090;SDS011;6611;52.604;13.438;2024-02-16T19:38:03;5.40;;;3.07;;
13090;SDS011;6611;52.604;13.438;2024-02-16T19:43:05;6.70;;;3.50;;
13090;SDS011;6611;52.604;13.438;2024-02-16T19:48:10;3.80;;;3.13;;
13090;SDS011;6611;52.604;13.438;2024-02-16T19:53:12;4.57;;;3.60;;
13090;SDS011;6611;52.604;13.438;2024-02-16T19:58:14;6.10;;;3.63;;
13090;SDS011;6611;52.604;13.438;2024-02-16T20:03:17;6.97;;;3.80;;
13090;SDS011;6611;52.604;13.438;2024-02-16T20:08:19;5.60;;;4.20;;
13090;SDS011;6611;52.604;13.438;2024-02-16T20:13:21;6.27;;;4.10;;
13090;SDS011;6611;52.604;13.438;2024-02-16T20:18:25;5.53;;;3.93;;
13090;SDS011;6611;52.604;13.438;2024-02-16T20:23:28;6.87;;;5.00;;
13090;SDS011;6611;52.604;13.438;2024-02-16T20:28:30;7.73;;;4.87;;
13090;SDS011;6611;52.604;13.438;2024-02-16T20:33:33;6.30;;;4.77;;
13090;SDS011;6611;52.604;13.438;2024-02-16T20:38:35;10.07;;;5.73;;
13090;SDS011;6611;52.604;13.438;2024-02-16T20:43:36;13.93;;;6.47;;
13090;SDS011;6611;52.604;13.438;2024-02-16T20:48:40;8.03;;;6.47;;
13090;SDS011;6611;52.604;13.438;2024-02-16T20:53:41;9.47;;;6.47;;
13090;SDS011;6611;52.604;13.438;2024-02-16T20:58:43;8.57;;;6.43;;
13090;SDS011;6611;52.604;13.438;2024-02-16T21:03:46;11.73;;;6.63;;
13090;SDS011;6611;52.604;13.438;2024-02-16T21:08:48;9.10;;;6.47;;
13090;SDS011;6611;52.604;13.438;2024-02-16T21:13:49;9.13;;;6.73;;
13090;SDS011;6611;52.604;13.438;2024-02-16T21:18:52;13.57;;;7.30;;
13090;SDS011;6611;52.604;13.438;2024-02-16T21:23:54;10.60;;;7.67;;
13090;SDS011;6611;52.604;13.438;2024-02-16T21:28:56;8.50;;;6.63;;
13090;SDS011;6611;52.604;13.438;2024-02-16T21:33:58;8.63;;;6.00;;
13090;SDS011;6611;52.604;13.438;2024-02-16T21:39:00;11.83;;;7.97;;
13090;SDS011;6611;52.604;13.438;2024-02-16T21:44:02;9.27;;;7.67;;
13090;SDS011;6611;52.604;13.438;2024-02-16T21:49:06;12.10;;;7.97;;
13090;SDS011;6611;52.604;13.438;2024-02-16T21:54:07;11.10;;;8.50;;
13090;SDS011;6611;52.604;13.438;2024-02-16T21:59:09;11.50;;;8.63;;
13090;SDS011;6611;52.604;13.438;2024-02-16T22:04:13;11.70;;;8.23;;
13090;SDS011;6611;52.604;13.438;2024-02-16T22:09:14;10.33;;;8.47;;
13090;SDS011;6611;52.604;13.438;2024-02-16T22:14:16;12.70;;;9.30;;
13090;SDS011;6611;52.604;13.438;2024-02-16T22:19:19;11.37;;;8.20;;
13090;SDS011;6611;52.604;13.438;2024-02-16T22:24:21;11.20;;;8.83;;
13090;SDS011;6611;52.604;13.438;2024-02-16T22:30:00;11.17;;;9.23;;
13090;SDS011;6611;52.604;13.438;2024-02-16T22:35:03;12.47;;;9.87;;
13090;SDS011;6611;52.604;13.438;2024-02-16T22:40:06;15.03;;;10.00;;
13090;SDS011;6611;52.604;13.438;2024-02-16T22:45:08;13.83;;;10.20;;
13090;SDS011;6611;52.604;13.438;2024-02-16T22:50:11;12.50;;;10.57;;
13090;SDS011;6611;52.604;13.438;2024-02-16T22:55:13;12.27;;;9.67;;
13090;SDS011;6611;52.604;13.438;2024-02-16T23:00:15;14.73;;;10.20;;
13090;SDS011;6611;52.604;13.438;2024-02-16T23:05:24;11.90;;;9.47;;
13090;SDS011;6611;52.604;13.438;2024-02-16T23:10:26;11.27;;;9.10;;
13090;SDS011;6611;52.604;13.438;2024-02-16T23:15:28;9.87;;;8.50;;
13090;SDS011;6611;52.604;13.438;2024-02-16T23:20:35;9.50;;;7.63;;
13090;SDS011;6611;52.604;13.438;2024-02-16T23:25:37;7.70;;;6.60;;
13090;SDS011;6611;52.604;13.438;2024-02-16T23:30:41;8.90;;;7.30;;
13090;SDS011;6611;52.604;13.438;2024-02-16T23:35:44;8.67;;;6.70;;
13090;SDS011;6611;52.604;13.438;2024-02-16T23:40:46;7.10;;;6.20;;
13090;SDS011;6611;52.604;13.438;2024-02-16T23:45:47;6.60;;;5.63;;
13090;SDS011;6611;52.604;13.438;2024-02-16T23:50:50;7.97;;;5.97;;
13090;SDS011;6611;52.604;13.438;2024-02-16T23:55:52;6.63;;;5.13;;
